Time;durP1;ratioP1;P1;durP2;ratioP2;P2;SDS_P1;SDS_P2;PMS_P1;PMS_P2;Temp;Humidity;BMP_temperature;BMP_pressure;BME280_temperature;BME280_humidity;BME280_pressure;Samples;Min_cycle;Max_cycle;Signal;HPM_P1;HPM_P2
2022/10/18 00:01:31;;;;;;;17.73;13.80;;;16.60;99.90;;;;;;5076061;28;20474;-75
2022/10/18 00:03:58;;;;;;;14.27;11.93;;;;;;;;;;5076068;28;20451;-75
2022/10/18 00:06:26;;;;;;;13.50;12.00;;;16.60;99.90;;;;;;5075743;28;20455;-75
2022/10/18 00:08:53;;;;;;;14.00;12.40;;;16.60;99.90;;;;;;5075552;28;20966;-76
2022/10/18 00:11:19;;;;;;;13.20;10.70;;;16.60;99.90;;;;;;5076034;28;20446;-76
2022/10/18 00:13:46;;;;;;;14.50;12.07;;;16.60;99.90;;;;;;5075765;28;20476;-75
2022/10/18 00:16:16;;;;;;;13.90;12.10;;;16.70;99.90;;;;;;5076022;28;20445;-75
2022/10/18 00:18:43;;;;;;;15.80;11.83;;;16.70;99.90;;;;;;5075959;28;20828;-77
2022/10/18 00:21:13;;;;;;;12.57;11.40;;;16.60;99.90;;;;;;5075760;28;20449;-76
2022/10/18 00:23:42;;;;;;;13.17;10.90;;;16.70;99.90;;;;;;5075771;28;20512;-75
2022/10/18 00:26:12;;;;;;;13.40;11.20;;;16.70;99.90;;;;;;5075449;28;20441;-75
2022/10/18 00:28:39;;;;;;;11.90;10.60;;;16.70;99.90;;;;;;5075783;28;20471;-75
2022/10/18 00:31:12;;;;;;;12.47;11.17;;;16.70;99.90;;;;;;5075268;28;20477;-75
2022/10/18 00:33:38;;;;;;;11.97;10.80;;;16.70;99.90;;;;;;5075331;28;20483;-75
2022/10/18 00:36:06;;;;;;;13.90;10.90;;;16.80;99.90;;;;;;5075476;28;20494;-75
2022/10/18 00:38:33;;;;;;;14.00;10.43;;;16.80;99.90;;;;;;5075441;28;20461;-76
2022/10/18 00:41:01;;;;;;;12.00;10.70;;;16.90;99.90;;;;;;5075636;28;20456;-76
2022/10/18 00:43:27;;;;;;;11.80;9.43;;;16.80;99.90;;;;;;5075814;28;20445;-76
2022/10/18 00:45:54;;;;;;;15.43;10.90;;;16.80;99.90;;;;;;5075030;28;20452;-75
2022/10/18 00:48:21;;;;;;;15.27;11.20;;;16.70;99.90;;;;;;5074946;28;20469;-75
2022/10/18 00:50:50;;;;;;;13.60;10.90;;;16.60;99.90;;;;;;5075146;28;20453;-75
2022/10/18 00:53:19;;;;;;;13.07;11.23;;;16.40;99.90;;;;;;5075072;28;20477;-74
2022/10/18 00:55:46;;;;;;;14.20;10.50;;;16.50;99.90;;;;;;5075121;28;20456;-74
2022/10/18 00:58:18;;;;;;;10.83;9.63;;;16.50;99.90;;;;;;5074741;28;20476;-74
2022/10/18 01:00:44;;;;;;;11.80;10.00;;;16.50;99.90;;;;;;5074940;28;20475;-74
2022/10/18 01:03:11;;;;;;;13.40;11.90;;;16.60;99.90;;;;;;5074459;28;20973;-75
2022/10/18 01:05:42;;;;;;;13.30;11.73;;;16.60;99.90;;;;;;5074884;28;20460;-74
2022/10/18 01:08:29;;;;;;;10.97;9.70;;;16.70;99.90;;;;;;5074751;28;20466;-74
2022/10/18 01:11:07;;;;;;;12.43;9.23;;;16.70;99.90;;;;;;5074608;28;20407;-74
2022/10/18 01:13:57;;;;;;;12.90;8.60;;;16.70;99.90;;;;;;5074618;28;20536;-74
2022/10/18 01:16:37;;;;;;;11.50;9.30;;;16.80;99.90;;;;;;5074755;28;20437;-75
2022/10/18 01:19:19;;;;;;;11.53;10.10;;;16.70;99.90;;;;;;5074510;28;20468;-75
2022/10/18 01:21:51;;;;;;;10.27;9.17;;;16.70;99.90;;;;;;5074286;28;20924;-74
2022/10/18 01:25:05;;;;;;;14.00;9.20;;;16.70;99.90;;;;;;5074732;28;20511;-74
2022/10/18 01:27:46;;;;;;;10.20;8.90;;;16.60;99.90;;;;;;5068074;28;20482;-75
2022/10/18 01:30:36;;;;;;;10.63;8.63;;;16.70;99.90;;;;;;5074487;28;20512;-74
2022/10/18 01:33:08;;;;;;;10.50;9.40;;;16.70;99.90;;;;;;5074290;28;20465;-75
2022/10/18 01:35:39;;;;;;;11.90;9.37;;;16.50;99.90;;;;;;5074167;28;20424;-75
2022/10/18 01:38:11;;;;;;;13.50;9.00;;;16.70;99.90;;;;;;5074301;28;20456;-75
2022/10/18 01:40:41;;;;;;;14.47;8.43;;;16.70;99.90;;;;;;5074403;28;20463;-75
2022/10/18 01:43:08;;;;;;;14.43;10.83;;;16.70;99.90;;;;;;5074380;28;20502;-75
2022/10/18 01:45:37;;;;;;;10.20;9.10;;;16.60;99.90;;;;;;5073919;28;20943;-75
2022/10/18 01:48:04;;;;;;;11.73;9.37;;;16.60;99.90;;;;;;5074023;28;20464;-75
2022/10/18 01:50:33;;;;;;;14.30;9.43;;;16.70;99.90;;;;;;5074042;28;20445;-75
2022/10/18 01:53:00;;;;;;;15.47;11.10;;;16.80;99.90;;;;;;5073813;28;20534;-76
2022/10/18 01:55:33;;;;;;;10.63;9.60;;;16.80;99.90;;;;;;5073906;28;20498;-75
2022/10/18 01:58:05;;;;;;;10.60;8.90;;;16.80;99.90;;;;;;5073480;28;20476;-75
2022/10/18 02:00:39;;;;;;;12.07;8.33;;;16.90;99.90;;;;;;5074658;28;20498;-75
2022/10/18 02:03:14;;;;;;;13.23;10.30;;;16.80;99.90;;;;;;5073519;28;20904;-75
2022/10/18 02:05:46;;;;;;;9.90;8.90;;;16.80;99.90;;;;;;5073790;28;20839;-75
2022/10/18 02:08:23;;;;;;;14.73;9.20;;;16.80;99.90;;;;;;5073761;28;20465;-75
2022/10/18 02:10:54;;;;;;;11.43;9.43;;;16.80;99.90;;;;;;5073774;28;20441;-75
2022/10/18 02:13:23;;;;;;;11.27;9.40;;;16.80;99.90;;;;;;5073251;28;20465;-75
2022/10/18 02:15:57;;;;;;;12.50;11.20;;;16.80;99.90;;;;;;5073595;28;20479;-75
2022/10/18 02:18:28;;;;;;;11.00;9.57;;;16.90;99.90;;;;;;5073501;28;20468;-75
2022/10/18 02:20:57;;;;;;;11.50;10.20;;;16.80;99.90;;;;;;5073518;28;20475;-75
2022/10/18 02:23:26;;;;;;;12.07;10.50;;;16.90;99.90;;;;;;5073611;28;20532;-75
2022/10/18 02:25:53;;;;;;;16.43;11.70;;;16.80;99.90;;;;;;5073610;28;20859;-75
2022/10/18 02:28:21;;;;;;;13.93;12.53;;;16.90;99.90;;;;;;5073764;28;20979;-75
2022/10/18 02:30:57;;;;;;;14.80;11.83;;;17.00;99.90;;;;;;5073098;28;20502;-75
2022/10/18 02:33:32;;;;;;;13.63;11.20;;;17.00;99.90;;;;;;5073052;28;21010;-75
2022/10/18 02:36:04;;;;;;;13.77;11.30;;;17.00;99.90;;;;;;5073352;28;20789;-75
2022/10/18 02:38:32;;;;;;;13.57;10.50;;;17.00;99.90;;;;;;5072981;28;20999;-75
2022/10/18 02:40:59;;;;;;;12.93;11.43;;;17.10;99.90;;;;;;5073515;28;20481;-75
2022/10/18 02:43:26;;;;;;;15.40;11.87;;;17.20;99.90;;;;;;5073171;28;20449;-75
2022/10/18 02:45:54;;;;;;;13.50;12.10;;;17.20;99.90;;;;;;5073223;28;20444;-75
2022/10/18 02:48:21;;;;;;;14.20;10.80;;;17.20;99.90;;;;;;5073083;28;20464;-75
2022/10/18 02:50:47;;;;;;;13.07;11.67;;;17.10;99.90;;;;;;5073115;28;20478;-75
2022/10/18 02:53:14;;;;;;;15.70;10.67;;;17.30;99.90;;;;;;5073109;28;20561;-75
2022/10/18 02:55:41;;;;;;;18.43;10.60;;;17.20;99.90;;;;;;5072755;28;20943;-75
2022/10/18 02:58:07;;;;;;;12.57;10.20;;;17.20;99.90;;;;;;5072951;28;20483;-75
2022/10/18 03:00:34;;;;;;;18.30;11.17;;;17.20;99.90;;;;;;5073522;28;20483;-75
2022/10/18 03:03:02;;;;;;;12.30;11.10;;;17.20;99.90;;;;;;5072657;28;20448;-75
2022/10/18 03:05:28;;;;;;;12.57;11.20;;;17.10;99.90;;;;;;5073076;28;20452;-75
2022/10/18 03:07:56;;;;;;;14.07;11.23;;;17.10;99.90;;;;;;5073254;28;20466;-75
2022/10/18 03:10:23;;;;;;;12.60;11.13;;;17.20;99.90;;;;;;5073405;28;20451;-75
2022/10/18 03:12:50;;;;;;;14.33;11.07;;;17.20;99.90;;;;;;5072982;28;20448;-75
2022/10/18 03:15:17;;;;;;;15.23;11.20;;;;;;;;;;5073677;28;20466;-75
2022/10/18 03:17:43;;;;;;;11.90;10.70;;;17.10;99.90;;;;;;5073069;28;21016;-75
2022/10/18 03:20:12;;;;;;;14.00;11.20;;;17.10;99.90;;;;;;5073066;28;20447;-75
2022/10/18 03:22:39;;;;;;;13.73;12.43;;;17.10;99.90;;;;;;5073019;28;20822;-75
2022/10/18 03:25:06;;;;;;;13.47;11.97;;;17.10;99.90;;;;;;5074202;28;20452;-75
2022/10/18 03:27:33;;;;;;;14.00;12.60;;;16.50;99.90;;;;;;5076952;28;20818;-75
2022/10/18 03:29:59;;;;;;;13.30;11.90;;;16.70;99.90;;;;;;5077178;28;20455;-75
2022/10/18 03:32:26;;;;;;;16.13;12.83;;;16.50;99.90;;;;;;5076898;28;20514;-76
2022/10/18 03:34:53;;;;;;;16.50;14.50;;;16.50;99.90;;;;;;5076750;28;20484;-75
2022/10/18 03:37:21;;;;;;;19.43;12.93;;;16.70;99.90;;;;;;5076812;28;20453;-74
2022/10/18 03:39:48;;;;;;;18.47;13.77;;;16.40;99.90;;;;;;5076857;28;20453;-75
2022/10/18 03:42:15;;;;;;;19.67;14.00;;;16.40;99.90;;;;;;5076884;28;20452;-73
2022/10/18 03:44:41;;;;;;;23.43;16.90;;;16.40;99.90;;;;;;5076457;28;21001;-74
2022/10/18 03:47:08;;;;;;;21.30;17.50;;;16.30;99.90;;;;;;5076705;28;20445;-75
2022/10/18 03:49:35;;;;;;;19.47;16.57;;;16.10;99.90;;;;;;5076549;28;20468;-73
2022/10/18 03:52:01;;;;;;;22.43;18.13;;;16.20;99.90;;;;;;5076753;28;20448;-74
2022/10/18 03:54:30;;;;;;;18.80;14.67;;;16.20;99.90;;;;;;5076468;28;20476;-75
2022/10/18 03:56:56;;;;;;;18.47;15.43;;;16.20;99.90;;;;;;5076823;28;20482;-73
2022/10/18 03:59:23;;;;;;;19.10;15.53;;;16.20;99.90;;;;;;5076069;28;20484;-73
2022/10/18 04:01:50;;;;;;;20.90;15.57;;;16.10;99.90;;;;;;5076449;28;20494;-74
2022/10/18 04:04:16;;;;;;;18.37;14.00;;;16.10;99.90;;;;;;5076195;28;20498;-73
2022/10/18 04:06:43;;;;;;;20.17;15.03;;;;;;;;;;5076265;28;20502;-74
2022/10/18 04:09:10;;;;;;;16.37;13.70;;;16.40;99.90;;;;;;5076072;28;20487;-74
2022/10/18 04:11:38;;;;;;;17.80;13.80;;;16.10;99.90;;;;;;5076197;28;20452;-75
2022/10/18 04:14:05;;;;;;;19.43;14.80;;;16.10;99.90;;;;;;5076199;28;20548;-75
2022/10/18 04:16:32;;;;;;;19.87;14.30;;;16.10;99.90;;;;;;5076300;28;20506;-75
2022/10/18 04:18:58;;;;;;;15.97;13.97;;;16.00;99.90;;;;;;5075811;28;20461;-75
2022/10/18 04:21:25;;;;;;;14.37;12.10;;;16.00;99.90;;;;;;5076351;28;20529;-74
2022/10/18 04:23:52;;;;;;;18.10;13.87;;;16.00;99.90;;;;;;5075868;28;20453;-74
2022/10/18 04:26:18;;;;;;;19.80;14.73;;;16.00;99.90;;;;;;5075853;28;20452;-75
2022/10/18 04:28:46;;;;;;;21.50;13.50;;;16.00;99.90;;;;;;5075687;28;20464;-75
2022/10/18 04:31:13;;;;;;;18.50;16.40;;;15.90;99.90;;;;;;5075800;28;20449;-74
2022/10/18 04:33:40;;;;;;;18.50;14.20;;;16.00;99.90;;;;;;5076033;28;20480;-75
2022/10/18 04:36:07;;;;;;;15.07;12.33;;;15.90;99.90;;;;;;5075311;28;20445;-74
2022/10/18 04:38:34;;;;;;;20.77;15.30;;;16.00;99.90;;;;;;5074930;28;20472;-74
2022/10/18 04:41:01;;;;;;;15.13;13.27;;;15.90;99.90;;;;;;5076007;28;20503;-75
2022/10/18 04:43:27;;;;;;;13.93;12.43;;;15.90;99.90;;;;;;5076581;28;20453;-75
2022/10/18 04:45:55;;;;;;;12.80;11.50;;;15.80;99.90;;;;;;5075532;28;20444;-75
2022/10/18 04:48:22;;;;;;;18.40;12.43;;;15.80;99.90;;;;;;5075268;28;20465;-74
2022/10/18 04:50:49;;;;;;;20.30;15.57;;;15.80;99.90;;;;;;5075249;28;20452;-75
2022/10/18 04:53:17;;;;;;;14.27;11.67;;;15.80;99.90;;;;;;5075241;28;20460;-75
2022/10/18 04:55:45;;;;;;;13.80;12.20;;;15.80;99.90;;;;;;5075228;28;20795;-76
2022/10/18 04:58:11;;;;;;;13.13;11.70;;;15.70;99.90;;;;;;5075291;28;20563;-75
2022/10/18 05:00:38;;;;;;;20.13;13.60;;;15.80;99.90;;;;;;5074628;28;20943;-75
2022/10/18 05:03:07;;;;;;;18.20;13.67;;;15.70;99.90;;;;;;5075517;28;20939;-76
2022/10/18 05:05:34;;;;;;;16.27;13.03;;;15.70;99.90;;;;;;5074956;28;20444;-75
2022/10/18 05:08:00;;;;;;;16.27;12.87;;;15.70;99.90;;;;;;5075961;28;21032;-76
2022/10/18 05:10:27;;;;;;;15.23;13.17;;;15.70;99.90;;;;;;5074921;28;20867;-76
2022/10/18 05:12:54;;;;;;;18.90;11.40;;;15.70;99.90;;;;;;5074713;28;20861;-74
2022/10/18 05:15:20;;;;;;;15.83;13.30;;;15.70;99.90;;;;;;5074413;28;20969;-74
2022/10/18 05:17:47;;;;;;;19.07;14.10;;;15.70;99.90;;;;;;5074405;28;20468;-74
2022/10/18 05:20:15;;;;;;;17.43;12.13;;;15.70;99.90;;;;;;5074365;28;20445;-74
2022/10/18 05:22:42;;;;;;;13.40;12.03;;;15.60;99.90;;;;;;5074298;28;20935;-74
2022/10/18 05:25:09;;;;;;;13.33;11.77;;;15.60;99.90;;;;;;5074590;28;20445;-76
2022/10/18 05:27:36;;;;;;;13.67;12.23;;;15.60;99.90;;;;;;5074617;28;20448;-74
2022/10/18 05:30:04;;;;;;;14.53;12.97;;;15.50;99.90;;;;;;5074553;28;20452;-75
2022/10/18 05:32:30;;;;;;;14.83;11.60;;;15.60;99.90;;;;;;5074560;28;20498;-75
2022/10/18 05:34:57;;;;;;;16.30;12.10;;;15.60;99.90;;;;;;5074334;28;20476;-74
2022/10/18 05:37:25;;;;;;;13.10;11.03;;;15.60;99.90;;;;;;5074085;28;20452;-74
2022/10/18 05:39:52;;;;;;;13.60;12.07;;;15.60;99.90;;;;;;5074346;28;20498;-76
2022/10/18 05:42:18;;;;;;;15.73;13.30;;;15.60;99.90;;;;;;5074465;28;20456;-74
2022/10/18 05:44:45;;;;;;;16.63;13.07;;;15.60;99.90;;;;;;5074037;28;20463;-74
2022/10/18 05:47:12;;;;;;;16.67;14.03;;;15.60;99.90;;;;;;5074199;28;20444;-76
2022/10/18 05:49:39;;;;;;;14.90;13.37;;;15.60;99.90;;;;;;5073843;28;20514;-75
2022/10/18 05:52:05;;;;;;;18.10;13.70;;;15.60;99.90;;;;;;5073819;28;20993;-74
2022/10/18 05:54:33;;;;;;;21.87;14.50;;;15.60;99.90;;;;;;5073796;28;20848;-74
2022/10/18 05:57:00;;;;;;;17.20;13.33;;;15.60;99.90;;;;;;5074060;28;20448;-74
2022/10/18 05:59:27;;;;;;;14.30;12.80;;;15.60;99.90;;;;;;5073542;28;20534;-75
2022/10/18 06:01:54;;;;;;;20.10;14.60;;;;;;;;;;5073801;28;20451;-75
2022/10/18 06:04:20;;;;;;;17.90;13.83;;;15.60;99.90;;;;;;5073556;28;20931;-74
2022/10/18 06:06:47;;;;;;;19.23;14.00;;;;;;;;;;5073835;28;21012;-74
2022/10/18 06:09:14;;;;;;;17.03;13.00;;;15.60;99.90;;;;;;5073469;28;20461;-75
2022/10/18 06:11:42;;;;;;;15.20;13.50;;;15.60;99.90;;;;;;5073330;28;20943;-75
2022/10/18 06:14:09;;;;;;;17.47;13.87;;;15.60;99.90;;;;;;5073260;28;20480;-74
2022/10/18 06:16:36;;;;;;;16.77;12.73;;;15.60;99.90;;;;;;5073818;28;20448;-76
2022/10/18 06:19:03;;;;;;;16.10;13.10;;;15.50;99.90;;;;;;5073387;28;20471;-76
2022/10/18 06:21:30;;;;;;;21.10;13.70;;;15.60;99.90;;;;;;5072983;28;20951;-75
2022/10/18 06:23:59;;;;;;;16.10;13.73;;;15.50;99.90;;;;;;5073250;28;20935;-74
2022/10/18 06:26:26;;;;;;;17.13;13.20;;;15.50;99.90;;;;;;5073481;28;20531;-75
2022/10/18 06:28:55;;;;;;;19.10;13.37;;;15.50;99.90;;;;;;5074248;28;20468;-74
2022/10/18 06:31:21;;;;;;;21.40;13.77;;;15.50;99.90;;;;;;5073276;28;20495;-74
2022/10/18 06:33:48;;;;;;;16.23;13.33;;;15.50;99.90;;;;;;5073240;28;20441;-74
2022/10/18 06:36:17;;;;;;;15.03;13.30;;;15.50;99.90;;;;;;5073242;28;20532;-74
2022/10/18 06:38:44;;;;;;;20.03;13.97;;;15.50;99.90;;;;;;5073192;28;20472;-74
2022/10/18 06:41:10;;;;;;;16.67;12.30;;;15.40;99.90;;;;;;5073384;28;20861;-75
2022/10/18 06:43:37;;;;;;;21.47;14.53;;;15.50;99.90;;;;;;5073632;28;20441;-74
2022/10/18 06:46:07;;;;;;;18.93;12.77;;;15.50;99.90;;;;;;5073406;28;20436;-74
2022/10/18 06:48:34;;;;;;;19.73;13.33;;;15.50;99.90;;;;;;5073119;28;20541;-75
2022/10/18 06:51:04;;;;;;;20.20;13.50;;;15.50;99.90;;;;;;5073426;28;20441;-75
2022/10/18 06:53:32;;;;;;;20.07;15.13;;;15.50;99.90;;;;;;5073383;28;20437;-75
2022/10/18 06:56:00;;;;;;;18.43;13.70;;;15.50;99.90;;;;;;5073240;28;21003;-75
2022/10/18 06:58:27;;;;;;;17.43;14.10;;;;;;;;;;5073602;28;20527;-75
2022/10/18 07:00:54;;;;;;;27.83;16.00;;;15.60;99.90;;;;;;5072800;28;20449;-76
2022/10/18 07:03:22;;;;;;;20.37;15.00;;;15.60;99.90;;;;;;5073250;28;20999;-76
2022/10/18 07:05:49;;;;;;;19.83;14.87;;;;;;;;;;5072990;28;20437;-77
2022/10/18 07:08:17;;;;;;;20.93;15.60;;;15.60;99.90;;;;;;5073051;28;20476;-76
2022/10/18 07:10:51;;;;;;;29.40;22.67;;;15.60;99.90;;;;;;5072710;28;20452;-77
2022/10/18 07:13:18;;;;;;;35.60;27.93;;;15.60;99.90;;;;;;5072842;28;20516;-75
2022/10/18 07:15:44;;;;;;;34.27;25.03;;;15.60;99.90;;;;;;5072614;28;20479;-75
2022/10/18 07:18:11;;;;;;;35.50;26.87;;;15.60;99.90;;;;;;5072888;28;20506;-76
2022/10/18 07:20:39;;;;;;;32.57;24.40;;;15.60;99.90;;;;;;5073075;28;21013;-77
2022/10/18 07:23:08;;;;;;;34.00;28.80;;;15.70;99.90;;;;;;5072646;28;20793;-75
2022/10/18 07:25:35;;;;;;;23.93;18.60;;;15.70;99.90;;;;;;5072535;28;20540;-75
2022/10/18 07:28:02;;;;;;;24.23;17.63;;;;;;;;;;5072466;28;20465;-75
2022/10/18 07:30:28;;;;;;;25.43;18.30;;;15.90;99.90;;;;;;5072519;28;20444;-75
2022/10/18 07:32:55;;;;;;;26.10;17.67;;;15.60;99.90;;;;;;5072875;28;20444;-76
2022/10/18 07:35:22;;;;;;;20.93;16.60;;;15.70;99.90;;;;;;5072613;28;20476;-76
2022/10/18 07:37:49;;;;;;;24.87;17.80;;;15.60;99.90;;;;;;5072551;28;20464;-76
2022/10/18 07:40:16;;;;;;;25.03;18.53;;;15.70;99.90;;;;;;5072577;28;20449;-77
2022/10/18 07:42:43;;;;;;;28.07;18.30;;;15.70;99.90;;;;;;5072609;28;20825;-75
2022/10/18 07:45:11;;;;;;;20.03;16.13;;;15.70;99.90;;;;;;5072083;28;20939;-75
2022/10/18 07:47:38;;;;;;;22.80;16.47;;;15.70;99.90;;;;;;5072368;28;20961;-75
2022/10/18 07:50:05;;;;;;;20.87;16.30;;;15.80;99.90;;;;;;5072421;28;20475;-75
2022/10/18 07:52:31;;;;;;;18.43;14.13;;;15.80;99.90;;;;;;5072493;28;20510;-75
2022/10/18 07:54:59;;;;;;;17.87;13.97;;;15.70;99.90;;;;;;5072543;28;20485;-76
2022/10/18 07:57:26;;;;;;;16.00;12.93;;;15.80;99.90;;;;;;5072477;28;20445;-75
2022/10/18 07:59:55;;;;;;;14.37;12.43;;;15.70;99.90;;;;;;5072415;28;20411;-74
2022/10/18 08:02:22;;;;;;;17.93;14.00;;;15.40;99.90;;;;;;5072421;28;20444;-74
2022/10/18 08:04:49;;;;;;;16.27;13.70;;;15.10;99.90;;;;;;5072493;28;20440;-75
2022/10/18 08:07:15;;;;;;;20.93;13.77;;;15.60;99.90;;;;;;5072337;28;20448;-75
2022/10/18 08:09:42;;;;;;;14.67;13.13;;;15.60;99.90;;;;;;5072670;28;20875;-76
2022/10/18 08:12:10;;;;;;;17.20;12.60;;;15.60;99.90;;;;;;5073051;28;21000;-75
2022/10/18 08:14:37;;;;;;;15.13;12.43;;;15.60;99.90;;;;;;5075825;28;20484;-75
2022/10/18 08:17:03;;;;;;;17.73;13.33;;;15.60;99.90;;;;;;5075740;28;20854;-75
2022/10/18 08:19:30;;;;;;;15.20;12.90;;;15.60;99.90;;;;;;5075762;28;20477;-75
2022/10/18 08:21:57;;;;;;;17.23;12.60;;;15.60;99.90;;;;;;5075891;28;20453;-76
2022/10/18 08:24:24;;;;;;;17.67;12.60;;;;;;;;;;5075753;28;20437;-75
2022/10/18 08:26:51;;;;;;;20.43;12.47;;;15.50;99.90;;;;;;5075631;28;20812;-75
2022/10/18 08:29:19;;;;;;;21.43;14.37;;;15.50;99.90;;;;;;5075493;28;20476;-75
2022/10/18 08:31:45;;;;;;;27.53;18.60;;;15.40;99.90;;;;;;5075180;28;20498;-75
2022/10/18 08:34:12;;;;;;;27.90;21.90;;;15.40;99.90;;;;;;5075558;28;20449;-75
2022/10/18 08:36:39;;;;;;;30.33;23.83;;;15.40;99.90;;;;;;5075561;28;20480;-75
2022/10/18 08:39:05;;;;;;;13.07;10.57;;;15.30;99.90;;;;;;5075199;28;20469;-75
2022/10/18 08:42:09;;;;;;;16.83;15.07;;;15.30;99.90;;;;;;5075017;28;20449;-75
2022/10/18 08:44:43;;;;;;;5.50;4.97;;;15.30;99.90;;;;;;5044394;28;20459;-75
2022/10/18 08:47:14;;;;;;;6.77;5.00;;;15.20;99.90;;;;;;5075983;28;20429;-75
2022/10/18 08:49:45;;;;;;;10.73;5.93;;;15.20;99.90;;;;;;5075624;28;20496;-75
2022/10/18 08:52:15;;;;;;;13.30;11.20;;;15.20;99.90;;;;;;5075946;28;20425;-76
2022/10/18 08:54:54;;;;;;;14.17;8.63;;;15.20;99.90;;;;;;5075404;28;20814;-75
2022/10/18 08:57:21;;;;;;;10.23;8.83;;;15.00;99.90;;;;;;5075136;28;20463;-76
2022/10/18 08:59:49;;;;;;;11.53;8.53;;;15.30;99.90;;;;;;5118482;22;20541;-81
2022/10/18 09:02:24;;;;;;;13.80;10.97;;;15.30;99.90;;;;;;5099497;28;20531;-81
2022/10/18 09:04:58;;;;;;;25.97;12.10;;;15.30;99.90;;;;;;5099586;28;20420;-81
2022/10/18 09:07:40;;;;;;;20.10;12.77;;;15.40;99.90;;;;;;5099438;28;20455;-81
2022/10/18 09:10:19;;;;;;;22.60;10.97;;;15.40;99.90;;;;;;5098706;28;20534;-82
2022/10/18 09:13:16;;;;;;;14.27;11.43;;;15.30;99.90;;;;;;5098465;28;20819;-80
2022/10/18 09:15:49;;;;;;;15.13;11.33;;;15.20;99.90;;;;;;5098264;28;20475;-79
2022/10/18 09:18:36;;;;;;;20.57;11.80;;;15.30;99.90;;;;;;5098137;28;20468;-80
2022/10/18 09:21:17;;;;;;;15.37;12.57;;;15.30;99.90;;;;;;5097810;28;20424;-80
2022/10/18 09:23:47;;;;;;;18.63;12.13;;;15.30;99.90;;;;;;5097912;28;20442;-80
2022/10/18 09:26:16;;;;;;;19.40;15.20;;;15.30;99.90;;;;;;5098301;28;20428;-80
2022/10/18 09:28:53;;;;;;;14.27;12.30;;;15.30;99.90;;;;;;5098317;28;20467;-79
2022/10/18 09:31:26;;;;;;;16.47;11.13;;;15.30;99.90;;;;;;5097690;28;20431;-80
2022/10/18 09:33:57;;;;;;;18.53;12.80;;;15.30;99.90;;;;;;5098253;28;20428;-79
2022/10/18 09:36:29;;;;;;;17.13;12.07;;;15.30;99.90;;;;;;5098057;28;20969;-80
2022/10/18 09:38:59;;;;;;;14.93;11.23;;;15.30;99.90;;;;;;5097354;28;21035;-80
2022/10/18 09:41:30;;;;;;;14.40;10.83;;;15.30;99.90;;;;;;5101646;28;20451;-79
2022/10/18 09:44:01;;;;;;;15.53;11.17;;;15.20;99.90;;;;;;5099845;28;20910;-79
2022/10/18 09:46:33;;;;;;;14.53;11.00;;;15.20;99.90;;;;;;5097349;28;20477;-80
2022/10/18 09:49:04;;;;;;;16.33;11.43;;;15.40;99.90;;;;;;5097270;28;20475;-80
2022/10/18 09:51:36;;;;;;;16.57;12.60;;;15.30;99.90;;;;;;5096615;28;20440;-80
2022/10/18 09:54:21;;;;;;;20.20;12.13;;;15.30;99.90;;;;;;5096656;28;20458;-80
2022/10/18 09:56:51;;;;;;;16.43;11.30;;;15.20;99.90;;;;;;5096212;28;20490;-80
2022/10/18 09:59:32;;;;;;;13.73;10.90;;;15.20;99.90;;;;;;5096958;28;20475;-80
2022/10/18 10:02:00;;;;;;;15.50;11.47;;;15.30;99.90;;;;;;5097027;28;20433;-79
2022/10/18 10:04:27;;;;;;;15.30;12.10;;;15.30;99.90;;;;;;5096929;28;20792;-80
2022/10/18 10:06:56;;;;;;;13.50;11.43;;;15.30;99.90;;;;;;5097053;28;20984;-82
2022/10/18 10:09:28;;;;;;;16.53;12.10;;;15.30;99.90;;;;;;5097026;28;20471;-80
2022/10/18 10:11:55;;;;;;;14.50;12.07;;;15.30;99.90;;;;;;5097515;28;20438;-78
2022/10/18 10:14:25;;;;;;;15.37;12.07;;;15.30;99.90;;;;;;5095992;28;20444;-79
2022/10/18 10:16:54;;;;;;;15.20;11.23;;;15.30;99.90;;;;;;5096639;28;20868;-79
2022/10/18 10:19:26;;;;;;;13.27;10.50;;;15.30;99.90;;;;;;5096998;28;20467;-81
2022/10/18 10:21:57;;;;;;;14.87;10.97;;;15.00;99.90;;;;;;5099077;28;20432;-79
2022/10/18 10:24:34;;;;;;;13.70;11.20;;;15.30;99.90;;;;;;5098652;28;20428;-78
2022/10/18 10:27:03;;;;;;;17.17;12.33;;;15.30;99.90;;;;;;5095372;28;20424;-78
2022/10/18 10:29:57;;;;;;;20.37;13.13;;;15.30;99.90;;;;;;5098543;28;20876;-77
2022/10/18 10:32:27;;;;;;;14.37;12.70;;;16.00;99.90;;;;;;5103306;28;20492;-78
2022/10/18 10:34:55;;;;;;;15.13;12.20;;;15.20;99.90;;;;;;5103342;28;20840;-76
2022/10/18 10:37:28;;;;;;;19.30;12.53;;;15.20;99.90;;;;;;5108406;28;20447;-78
2022/10/18 10:40:22;;;;;;;16.37;12.03;;;14.80;99.90;;;;;;5113134;28;20456;-78
2022/10/18 10:42:57;;;;;;;18.10;12.13;;;15.30;99.90;;;;;;5105843;28;20460;-81
2022/10/18 10:45:26;;;;;;;14.57;11.80;;;15.30;99.90;;;;;;5099474;28;20420;-80
2022/10/18 10:47:54;;;;;;;15.47;11.40;;;15.20;99.90;;;;;;5097943;28;20439;-81
2022/10/18 10:50:27;;;;;;;18.63;12.40;;;15.20;99.90;;;;;;5097373;28;20414;-81
2022/10/18 10:52:54;;;;;;;14.60;11.03;;;15.20;99.90;;;;;;5097448;28;20432;-80
2022/10/18 10:55:27;;;;;;;14.97;12.13;;;15.20;99.90;;;;;;5097163;28;20484;-80
2022/10/18 10:57:55;;;;;;;16.30;13.70;;;15.50;99.90;;;;;;5096942;28;20432;-81
2022/10/18 11:00:41;;;;;;;16.50;13.13;;;15.70;99.90;;;;;;5096417;28;20516;-80
2022/10/18 11:03:13;;;;;;;40.60;26.30;;;15.20;99.90;;;;;;5096656;28;20436;-80
2022/10/18 11:05:47;;;;;;;19.43;15.20;;;15.30;99.90;;;;;;5097525;28;20581;-79
2022/10/18 11:08:18;;;;;;;16.23;13.27;;;15.40;99.90;;;;;;5100650;28;20494;-80
2022/10/18 11:10:58;;;;;;;17.13;13.57;;;15.30;99.90;;;;;;5102585;28;20411;-79
2022/10/18 11:13:34;;;;;;;40.20;35.70;;;15.40;99.90;;;;;;5098028;28;20432;-80
2022/10/18 11:16:05;;;;;;;43.63;38.43;;;15.30;99.90;;;;;;5097184;28;20520;-80
2022/10/18 11:18:34;;;;;;;22.90;20.30;;;15.30;99.90;;;;;;5096259;28;20521;-80
2022/10/18 11:21:07;;;;;;;31.00;24.27;;;15.30;99.90;;;;;;5095787;28;20447;-79
2022/10/18 11:23:35;;;;;;;29.33;23.00;;;15.40;99.90;;;;;;5095637;28;20773;-80
2022/10/18 11:26:28;;;;;;;21.23;15.47;;;15.40;99.90;;;;;;5095794;28;20443;-79
2022/10/18 11:29:22;;;;;;;107.70;83.53;;;15.30;99.90;;;;;;5095275;28;20472;-79
2022/10/18 11:32:01;;;;;;;260.33;201.53;;;15.40;99.90;;;;;;5096102;28;20433;-79
2022/10/18 11:34:46;;;;;;;81.60;58.43;;;15.40;99.90;;;;;;5095312;28;20432;-81
2022/10/18 11:37:29;;;;;;;181.67;131.53;;;15.40;99.90;;;;;;5094765;28;20463;-80
2022/10/18 11:40:06;;;;;;;462.93;202.67;;;15.40;99.90;;;;;;5095048;28;20513;-80
2022/10/18 11:42:40;;;;;;;257.50;125.67;;;15.40;99.90;;;;;;5095292;28;20406;-80
2022/10/18 11:45:24;;;;;;;43.53;27.90;;;15.20;99.90;;;;;;5097517;28;20432;-82
2022/10/18 11:47:58;;;;;;;20.57;14.40;;;15.00;99.90;;;;;;5101428;28;20432;-79
2022/10/18 11:50:32;;;;;;;14.77;12.40;;;15.30;99.90;;;;;;5102408;28;20571;-79
2022/10/18 11:53:09;;;;;;;13.13;11.73;;;15.20;99.90;;;;;;5103098;28;20455;-79
2022/10/18 11:55:48;;;;;;;16.87;13.07;;;15.50;99.90;;;;;;5100842;28;20424;-80
2022/10/18 11:58:32;;;;;;;13.27;11.57;;;15.40;99.90;;;;;;5099899;28;20586;-80
2022/10/18 12:01:07;;;;;;;14.43;12.97;;;15.10;99.90;;;;;;5099595;28;20438;-80
2022/10/18 12:03:41;;;;;;;11.43;10.30;;;15.40;99.90;;;;;;5100606;28;20426;-81
2022/10/18 12:06:15;;;;;;;18.43;12.50;;;15.40;99.90;;;;;;5099988;28;20883;-80
2022/10/18 12:08:47;;;;;;;21.30;12.43;;;15.40;99.90;;;;;;5104786;28;20676;-79
2022/10/18 12:11:18;;;;;;;18.10;14.63;;;15.30;99.90;;;;;;5101718;28;20478;-81
2022/10/18 12:13:48;;;;;;;39.77;25.77;;;15.00;99.90;;;;;;5100236;28;20780;-81
2022/10/18 12:16:18;;;;;;;21.20;16.07;;;15.40;99.90;;;;;;5103077;28;20472;-79
2022/10/18 12:18:52;;;;;;;15.57;13.90;;;15.50;99.90;;;;;;5105035;28;20418;-80
2022/10/18 12:21:22;;;;;;;56.80;47.57;;;15.20;99.90;;;;;;5102236;28;20427;-79
2022/10/18 12:23:55;;;;;;;179.00;153.50;;;15.30;99.90;;;;;;5103490;28;20539;-81
2022/10/18 12:26:22;;;;;;;89.30;68.10;;;16.20;99.90;;;;;;5104303;28;20512;-81
2022/10/18 12:28:59;;;;;;;263.00;160.43;;;16.00;99.90;;;;;;5102710;28;20464;-80
2022/10/18 12:31:32;;;;;;;34.90;26.50;;;16.20;99.90;;;;;;5103953;28;20903;-80
2022/10/18 12:34:04;;;;;;;83.37;58.37;;;15.10;99.90;;;;;;5100864;28;20440;-80
2022/10/18 12:36:48;;;;;;;467.73;318.57;;;15.80;99.90;;;;;;5100251;28;20554;-80
2022/10/18 12:39:22;;;;;;;216.50;147.57;;;15.40;99.90;;;;;;5099646;28;20861;-81
2022/10/18 12:41:52;;;;;;;160.83;102.60;;;16.10;99.90;;;;;;5099489;28;20421;-80
2022/10/18 12:44:21;;;;;;;131.07;85.67;;;15.10;99.90;;;;;;5099297;28;20444;-80
2022/10/18 12:46:51;;;;;;;361.20;225.13;;;15.60;99.90;;;;;;5098938;28;20439;-81